Oegstgeest, Netherlands
Current Conditions -  °F | °C
As of 3:25 AM on Sunday 23 Nov 2014 (Local Time) from EHAM Reporting Station
Light Rain Light Rain  
Wind Chill: 48°   Ceiling: Unl
Heat Index: 48°   Visibility: 6mi
Dew Point: 46°   Wind: 3mph
Humidity: 93%   Direction: 170°S
Pressure: 30.03"   Gusts: NA
Location:  52.18°N, 4.47°E
Report Text: EHAM 230225Z 17003KT 9999 -RA FEW023 09/08 Q1017 NOSIG
Loading
Personal Weather Stations






























Interactive Weather Map New forecast layout! Learn more

10-Day Weather Forecast

Advertisements
Track Severe Weather on mobile